createdAt,value
2022-10-14T00:01:27.906Z,13.30
2022-10-14T00:06:27.212Z,13.20
2022-10-14T00:11:26.876Z,13.20
2022-10-14T00:13:56.759Z,13.20
2022-10-14T00:16:29.668Z,13.20
2022-10-14T00:18:58.752Z,13.20
2022-10-14T00:21:28.647Z,13.20
2022-10-14T00:23:57.738Z,13.20
2022-10-14T00:26:30.784Z,13.20
2022-10-14T00:29:02.057Z,13.20
2022-10-14T00:31:34.460Z,13.20
2022-10-14T00:36:31.867Z,13.20
2022-10-14T00:41:31.931Z,13.20
2022-10-14T00:44:04.171Z,13.20
2022-10-14T00:46:36.604Z,13.20
2022-10-14T00:49:13.157Z,13.20
2022-10-14T00:51:45.148Z,13.20
2022-10-14T00:54:17.917Z,13.20
2022-10-14T00:56:48.984Z,13.20
2022-10-14T00:59:18.009Z,13.20
2022-10-14T01:01:47.703Z,13.20
2022-10-14T01:04:15.911Z,13.20
2022-10-14T01:06:53.857Z,13.20
2022-10-14T01:09:29.604Z,13.20
2022-10-14T01:12:29.592Z,13.20
2022-10-14T01:15:08.505Z,13.20
2022-10-14T01:17:53.316Z,13.20
2022-10-14T01:20:50.572Z,13.20
2022-10-14T01:24:08.543Z,13.20
2022-10-14T01:27:00.713Z,13.20
2022-10-14T01:30:08.867Z,13.10
2022-10-14T01:32:46.648Z,13.10
2022-10-14T01:35:30.748Z,13.10
2022-10-14T01:38:02.882Z,13.10
2022-10-14T01:40:38.233Z,13.10
2022-10-14T01:43:07.723Z,13.10
2022-10-14T01:45:40.894Z,13.10
2022-10-14T01:48:14.232Z,13.20
2022-10-14T01:50:46.280Z,13.20
2022-10-14T01:53:20.545Z,13.20
2022-10-14T01:55:50.157Z,13.20
2022-10-14T01:58:21.514Z,13.20
2022-10-14T02:00:52.559Z,13.20
2022-10-14T02:05:59.312Z,13.20
2022-10-14T02:08:37.235Z,13.20
2022-10-14T02:11:12.283Z,13.20
2022-10-14T02:14:05.025Z,13.20
2022-10-14T02:16:41.909Z,13.20
2022-10-14T02:19:23.957Z,13.20
2022-10-14T02:21:59.080Z,13.20
2022-10-14T02:24:32.559Z,13.20
2022-10-14T02:27:06.465Z,13.20
2022-10-14T02:29:36.155Z,13.10
2022-10-14T02:32:08.107Z,13.10
2022-10-14T02:34:38.695Z,13.10
2022-10-14T02:39:45.515Z,13.10
2022-10-14T02:44:54.933Z,13.10
2022-10-14T02:47:25.703Z,13.10
2022-10-14T02:49:54.505Z,13.10
2022-10-14T02:57:23.660Z,13.10
2022-10-14T03:04:50.977Z,13.10
2022-10-14T03:09:51.932Z,13.10
2022-10-14T03:19:51.948Z,13.10
2022-10-14T03:24:49.193Z,13.10
2022-10-14T03:30:10.465Z,13.00
2022-10-14T03:32:45.977Z,13.00
2022-10-14T03:35:24.617Z,13.00
2022-10-14T03:40:30.957Z,12.90
2022-10-14T03:43:02.020Z,12.90
2022-10-14T03:48:07.956Z,12.90
2022-10-14T03:50:41.496Z,12.90
2022-10-14T04:05:53.799Z,12.90
2022-10-14T04:10:58.852Z,12.90
2022-10-14T04:16:04.930Z,12.90
2022-10-14T04:18:39.024Z,12.90
2022-10-14T04:21:12.393Z,12.90
2022-10-14T04:36:38.579Z,12.90
2022-10-14T04:52:05.815Z,12.90
2022-10-14T05:02:21.594Z,12.90
2022-10-14T05:07:31.356Z,12.90
2022-10-14T05:10:11.105Z,12.90
2022-10-14T05:23:01.298Z,13.00
2022-10-14T05:25:29.665Z,12.90
2022-10-14T05:38:22.900Z,13.00
2022-10-14T05:40:55.007Z,13.00
2022-10-14T05:48:32.171Z,13.00
2022-10-14T05:53:35.297Z,13.00
2022-10-14T05:56:11.079Z,13.00
2022-10-14T06:01:12.417Z,13.00
2022-10-14T06:06:14.988Z,13.10
2022-10-14T06:08:45.508Z,13.10
2022-10-14T06:11:14.269Z,13.10
2022-10-14T06:13:42.611Z,13.10
2022-10-14T06:18:40.869Z,13.10
2022-10-14T06:26:09.966Z,13.20
2022-10-14T06:28:41.581Z,13.20
2022-10-14T06:36:08.521Z,13.20
2022-10-14T06:41:05.307Z,13.30
2022-10-14T06:43:35.296Z,13.20
2022-10-14T06:46:04.711Z,13.30
2022-10-14T06:51:02.399Z,13.30
2022-10-14T06:53:31.036Z,13.30
2022-10-14T06:56:01.583Z,13.30
2022-10-14T06:58:32.884Z,13.30
2022-10-14T07:01:05.725Z,13.30
2022-10-14T07:03:37.556Z,13.30
2022-10-14T07:06:07.490Z,13.30
2022-10-14T07:11:06.203Z,13.40
2022-10-14T07:13:35.246Z,13.40
2022-10-14T07:16:05.253Z,13.50
2022-10-14T07:21:06.824Z,13.60
2022-10-14T07:28:34.114Z,13.60
2022-10-14T07:31:06.988Z,13.60
2022-10-14T07:36:09.776Z,13.70
2022-10-14T07:41:16.780Z,13.70
2022-10-14T07:43:45.513Z,13.80
2022-10-14T07:46:16.859Z,13.80
2022-10-14T08:01:24.233Z,13.80
2022-10-14T08:06:21.635Z,13.80
2022-10-14T08:08:50.531Z,13.80
2022-10-14T08:11:22.008Z,13.80
2022-10-14T08:13:50.723Z,13.80
2022-10-14T08:16:23.405Z,13.90
2022-10-14T08:18:52.791Z,13.90
2022-10-14T08:21:21.993Z,13.90
2022-10-14T08:23:50.765Z,13.90
2022-10-14T08:26:23.304Z,13.90
2022-10-14T08:28:52.965Z,13.90
2022-10-14T08:31:22.993Z,13.90
2022-10-14T08:33:52.196Z,13.90
2022-10-14T08:36:21.961Z,13.90
2022-10-14T08:38:52.512Z,14.00
2022-10-14T08:41:57.608Z,14.00
2022-10-14T08:44:29.854Z,14.00
2022-10-14T08:47:02.215Z,14.00
2022-10-14T08:49:36.512Z,14.10
2022-10-14T08:52:11.812Z,14.10
2022-10-14T08:54:45.278Z,14.10
2022-10-14T08:57:19.128Z,14.20
2022-10-14T08:59:47.624Z,14.20
2022-10-14T09:02:31.930Z,14.20
2022-10-14T09:05:02.129Z,14.20
2022-10-14T09:07:32.714Z,14.30
2022-10-14T09:10:07.610Z,14.30
2022-10-14T09:12:36.861Z,11.20
2022-10-14T09:15:17.884Z,14.40
2022-10-14T09:17:53.611Z,14.50
2022-10-14T09:20:24.751Z,14.60
2022-10-14T09:23:06.863Z,14.70
2022-10-14T09:25:37.823Z,14.80
2022-10-14T09:28:06.477Z,14.80
2022-10-14T09:30:39.033Z,14.90
2022-10-14T09:33:12.039Z,14.90
2022-10-14T09:35:44.667Z,14.90
2022-10-14T09:38:13.617Z,15.00
2022-10-14T09:40:45.087Z,15.00
2022-10-14T09:43:19.632Z,15.10
2022-10-14T09:45:56.941Z,15.20
2022-10-14T09:48:38.412Z,15.30
2022-10-14T09:51:10.209Z,15.40
2022-10-14T09:53:45.216Z,15.50
2022-10-14T09:56:14.017Z,15.50
2022-10-14T09:58:47.479Z,15.60
2022-10-14T10:01:18.993Z,15.60
2022-10-14T10:03:50.562Z,15.50
2022-10-14T10:06:21.470Z,15.50
2022-10-14T10:09:00.051Z,15.50
2022-10-14T10:11:31.148Z,15.50
2022-10-14T10:14:16.575Z,15.50
2022-10-14T10:19:29.622Z,15.30
2022-10-14T10:22:22.504Z,15.20
2022-10-14T10:24:53.264Z,15.20
2022-10-14T10:27:26.000Z,15.20
2022-10-14T10:29:56.215Z,15.20
2022-10-14T10:32:34.099Z,15.20
2022-10-14T10:35:16.351Z,15.30
2022-10-14T10:38:01.031Z,15.30
2022-10-14T10:40:37.510Z,15.40
2022-10-14T10:43:34.286Z,15.40
2022-10-14T10:46:34.617Z,15.30
2022-10-14T10:49:11.253Z,15.30
2022-10-14T10:51:53.313Z,15.30
2022-10-14T10:54:33.160Z,15.30
2022-10-14T10:57:09.505Z,15.20
2022-10-14T10:59:56.253Z,15.30
2022-10-14T11:03:00.351Z,15.20
2022-10-14T11:05:47.272Z,15.10
2022-10-14T11:09:10.714Z,15.10
2022-10-14T11:12:12.730Z,15.00
2022-10-14T11:15:20.272Z,14.90
2022-10-14T11:17:55.173Z,14.90
2022-10-14T11:20:33.808Z,14.90
2022-10-14T11:23:22.622Z,14.70
2022-10-14T11:26:01.066Z,14.60
2022-10-14T11:28:40.114Z,14.60
2022-10-14T11:31:24.208Z,14.60
2022-10-14T11:34:31.413Z,14.60
2022-10-14T11:37:14.984Z,14.60
2022-10-14T11:39:49.840Z,14.70
2022-10-14T11:42:38.696Z,14.60
2022-10-14T11:45:29.705Z,14.50
2022-10-14T11:48:11.360Z,14.50
2022-10-14T11:50:44.195Z,14.50
2022-10-14T11:53:18.003Z,14.40
2022-10-14T11:55:55.218Z,14.40
2022-10-14T11:58:28.609Z,14.30
2022-10-14T12:01:01.310Z,14.30
2022-10-14T12:03:46.548Z,14.30
2022-10-14T12:06:19.277Z,14.40
2022-10-14T12:08:55.166Z,14.40
2022-10-14T12:11:31.816Z,14.40
2022-10-14T12:14:10.301Z,14.50
2022-10-14T12:16:42.477Z,14.50
2022-10-14T12:19:17.733Z,14.50
2022-10-14T12:21:52.844Z,14.60
2022-10-14T12:24:26.211Z,14.60
2022-10-14T12:26:58.249Z,14.70
2022-10-14T12:29:33.319Z,14.70
2022-10-14T12:32:21.009Z,14.80
2022-10-14T12:34:54.633Z,14.80
2022-10-14T12:37:51.861Z,14.90
2022-10-14T12:40:31.494Z,15.00
2022-10-14T12:43:24.489Z,15.00
2022-10-14T12:46:03.361Z,15.00
2022-10-14T12:48:34.467Z,15.10
2022-10-14T12:51:14.530Z,15.10
2022-10-14T12:54:04.644Z,15.10
2022-10-14T12:56:39.257Z,15.20
2022-10-14T12:59:10.403Z,15.20
2022-10-14T13:01:44.948Z,15.20
2022-10-14T13:04:20.306Z,15.20
2022-10-14T13:07:43.693Z,15.20
2022-10-14T13:10:50.592Z,15.20
2022-10-14T13:14:02.072Z,15.30
2022-10-14T13:17:28.470Z,15.40
2022-10-14T13:22:43.566Z,15.40
2022-10-14T13:25:22.131Z,15.40
2022-10-14T13:28:05.212Z,15.40
2022-10-14T13:30:49.791Z,15.30
2022-10-14T13:33:27.825Z,15.20
2022-10-14T13:36:08.728Z,15.20
2022-10-14T13:38:43.780Z,15.10
2022-10-14T13:41:18.464Z,15.10
2022-10-14T13:46:22.559Z,15.20
2022-10-14T13:48:56.442Z,15.20
2022-10-14T13:51:37.525Z,15.30
2022-10-14T13:54:19.733Z,15.30
2022-10-14T14:02:49.029Z,15.70
2022-10-14T14:05:25.458Z,15.80
2022-10-14T14:11:11.413Z,15.90
2022-10-14T14:14:00.249Z,16.00
2022-10-14T14:16:34.936Z,16.00
2022-10-14T14:19:09.675Z,16.00
2022-10-14T14:21:40.057Z,16.00
2022-10-14T14:24:23.193Z,16.00
2022-10-14T14:26:56.404Z,15.90
2022-10-14T14:29:30.628Z,15.90
2022-10-14T14:32:06.839Z,15.90
2022-10-14T14:34:38.687Z,15.90
2022-10-14T14:37:40.264Z,15.80
2022-10-14T14:40:16.028Z,15.90
2022-10-14T14:42:46.999Z,15.90
2022-10-14T14:45:20.420Z,15.90
2022-10-14T14:47:54.387Z,15.90
2022-10-14T14:50:31.679Z,15.90
2022-10-14T14:53:08.276Z,16.00
2022-10-14T14:55:45.078Z,15.90
2022-10-14T14:58:34.317Z,15.80
2022-10-14T15:04:13.374Z,15.80
2022-10-14T15:09:15.498Z,15.70
2022-10-14T15:11:51.753Z,15.70
2022-10-14T15:14:33.995Z,15.60
2022-10-14T15:17:05.604Z,15.60
2022-10-14T15:19:38.780Z,15.60
2022-10-14T15:22:35.152Z,15.60
2022-10-14T15:25:09.166Z,15.60
2022-10-14T15:27:46.647Z,15.60
2022-10-14T15:30:34.576Z,15.60
2022-10-14T15:33:14.200Z,15.70
2022-10-14T15:38:18.107Z,15.70
2022-10-14T15:40:49.384Z,15.70
2022-10-14T15:43:27.833Z,15.70
2022-10-14T15:46:20.336Z,15.70
2022-10-14T15:48:52.152Z,15.70
2022-10-14T15:51:23.733Z,15.70
2022-10-14T15:53:52.558Z,15.70
2022-10-14T15:56:22.141Z,15.60
2022-10-14T16:01:21.728Z,15.40
2022-10-14T16:03:52.424Z,15.40
2022-10-14T16:06:22.554Z,15.40
2022-10-14T16:08:51.051Z,15.30
2022-10-14T16:11:24.160Z,15.30
2022-10-14T16:13:52.427Z,15.30
2022-10-14T16:16:26.792Z,15.20
2022-10-14T16:18:55.035Z,15.20
2022-10-14T16:21:23.207Z,15.20
2022-10-14T16:23:52.696Z,15.20
2022-10-14T16:33:55.581Z,15.20
2022-10-14T16:36:25.958Z,15.20
2022-10-14T16:38:56.557Z,15.20
2022-10-14T16:41:30.918Z,15.20
2022-10-14T16:43:59.120Z,15.20
2022-10-14T16:49:10.168Z,15.20
2022-10-14T16:56:54.304Z,15.20
2022-10-14T17:01:51.934Z,15.20
2022-10-14T17:04:21.220Z,15.20
2022-10-14T17:09:25.875Z,15.20
2022-10-14T17:11:57.131Z,15.20
2022-10-14T17:16:54.045Z,15.20
2022-10-14T17:19:23.913Z,15.10
2022-10-14T17:21:52.133Z,15.10
2022-10-14T17:29:20.335Z,15.00
2022-10-14T17:31:51.464Z,15.10
2022-10-14T17:39:25.826Z,15.00
2022-10-14T17:41:57.703Z,15.00
2022-10-14T17:44:28.861Z,15.00
2022-10-14T17:54:24.841Z,15.00
2022-10-14T18:02:07.346Z,15.00
2022-10-14T18:04:35.584Z,15.00
2022-10-14T18:14:40.382Z,15.00
2022-10-14T18:17:12.834Z,15.00
2022-10-14T18:24:49.461Z,15.00
2022-10-14T18:29:47.001Z,14.90
2022-10-14T18:32:17.723Z,14.90
2022-10-14T18:37:15.813Z,14.90
2022-10-14T18:42:16.035Z,14.90
2022-10-14T18:44:46.744Z,14.90
2022-10-14T18:49:46.141Z,14.90
2022-10-14T18:52:15.516Z,14.90
2022-10-14T19:02:16.932Z,14.90
2022-10-14T19:09:42.780Z,14.80
2022-10-14T19:17:23.747Z,14.50
2022-10-14T19:34:47.507Z,14.40
2022-10-14T19:42:12.973Z,14.40
2022-10-14T19:44:41.255Z,14.30
2022-10-14T19:52:10.545Z,14.40
2022-10-14T19:54:38.786Z,14.40
2022-10-14T20:07:01.269Z,14.30
2022-10-14T20:09:30.813Z,14.30
2022-10-14T20:16:56.152Z,14.30
2022-10-14T20:19:24.422Z,14.30
2022-10-14T20:24:21.072Z,14.30
2022-10-14T20:26:50.652Z,14.30
2022-10-14T20:29:19.195Z,14.30
2022-10-14T20:44:12.345Z,14.40
2022-10-14T20:46:40.557Z,14.40
2022-10-14T20:56:40.293Z,14.40
2022-10-14T20:59:13.152Z,14.40
2022-10-14T21:06:39.583Z,14.40
2022-10-14T21:09:08.479Z,14.40
2022-10-14T21:11:36.737Z,14.40
2022-10-14T21:16:36.673Z,14.40
2022-10-14T21:19:07.534Z,14.40
2022-10-14T21:21:39.906Z,14.50
2022-10-14T21:24:09.565Z,14.40
2022-10-14T21:29:06.531Z,14.50
2022-10-14T21:31:36.458Z,14.40
2022-10-14T21:34:06.556Z,14.40
2022-10-14T21:39:07.757Z,14.40
2022-10-14T21:44:06.530Z,14.30
2022-10-14T21:46:36.794Z,14.30
2022-10-14T21:49:05.123Z,14.20
2022-10-14T21:51:33.685Z,14.20
2022-10-14T21:54:01.942Z,14.10
2022-10-14T21:56:30.148Z,14.10
2022-10-14T21:58:58.418Z,14.10
2022-10-14T22:01:28.993Z,14.10
2022-10-14T22:04:01.074Z,14.00
2022-10-14T22:06:29.885Z,14.00
2022-10-14T22:09:00.332Z,14.00
2022-10-14T22:11:31.054Z,14.00
2022-10-14T22:14:02.117Z,14.00
2022-10-14T22:16:31.282Z,14.00
2022-10-14T22:19:03.161Z,14.00
2022-10-14T22:21:34.841Z,14.00
2022-10-14T22:24:03.775Z,14.00
2022-10-14T22:26:33.165Z,14.00
2022-10-14T22:29:04.394Z,14.00
2022-10-14T22:31:33.904Z,14.00
2022-10-14T22:34:05.954Z,14.00
2022-10-14T22:36:36.297Z,14.00
2022-10-14T22:39:08.868Z,14.00
2022-10-14T22:44:08.311Z,14.00
2022-10-14T22:46:38.926Z,14.00
2022-10-14T22:49:08.700Z,14.00
2022-10-14T22:51:41.220Z,14.10
2022-10-14T22:54:10.324Z,14.10
2022-10-14T22:56:39.842Z,14.10
2022-10-14T22:59:10.697Z,14.10
2022-10-14T23:01:39.411Z,14.10
2022-10-14T23:04:09.995Z,14.10
2022-10-14T23:06:39.689Z,14.10
2022-10-14T23:09:07.895Z,14.10
2022-10-14T23:11:36.171Z,14.10
2022-10-14T23:14:07.089Z,14.10
2022-10-14T23:16:36.077Z,14.10
2022-10-14T23:21:36.383Z,14.40
2022-10-14T23:24:08.972Z,14.20
2022-10-14T23:26:37.759Z,14.20
2022-10-14T23:29:09.693Z,14.20
2022-10-14T23:34:11.689Z,14.20
2022-10-14T23:36:41.828Z,14.20
2022-10-14T23:39:10.359Z,14.20
2022-10-14T23:44:07.184Z,14.20
2022-10-14T23:49:21.127Z,14.30
2022-10-14T23:51:53.616Z,14.30
2022-10-14T23:54:21.875Z,14.30
2022-10-14T23:59:18.814Z,14.30
